sensor_id;sensor_type;location;lat;lon;timestamp;P1;durP1;ratioP1;P2;durP2;ratioP2
11425;SDS011;5769;47.998;7.788;2023-04-03T00:01:28;0.75;;;0.75;;
11425;SDS011;5769;47.998;7.788;2023-04-03T00:03:55;0.88;;;0.88;;
11425;SDS011;5769;47.998;7.788;2023-04-03T00:06:23;0.85;;;0.85;;
11425;SDS011;5769;47.998;7.788;2023-04-03T00:08:50;0.63;;;0.63;;
11425;SDS011;5769;47.998;7.788;2023-04-03T00:11:17;0.85;;;0.85;;
11425;SDS011;5769;47.998;7.788;2023-04-03T00:13:44;0.82;;;0.82;;
11425;SDS011;5769;47.998;7.788;2023-04-03T00:16:12;1.02;;;1.02;;
11425;SDS011;5769;47.998;7.788;2023-04-03T00:18:40;0.93;;;0.93;;
11425;SDS011;5769;47.998;7.788;2023-04-03T00:21:07;1.13;;;1.13;;
11425;SDS011;5769;47.998;7.788;2023-04-03T00:23:34;0.82;;;0.82;;
11425;SDS011;5769;47.998;7.788;2023-04-03T00:26:03;0.82;;;0.82;;
11425;SDS011;5769;47.998;7.788;2023-04-03T00:28:30;0.80;;;0.80;;
11425;SDS011;5769;47.998;7.788;2023-04-03T00:30:58;0.68;;;0.68;;
11425;SDS011;5769;47.998;7.788;2023-04-03T00:33:25;0.77;;;0.77;;
11425;SDS011;5769;47.998;7.788;2023-04-03T00:35:53;0.95;;;0.95;;
11425;SDS011;5769;47.998;7.788;2023-04-03T00:38:20;1.15;;;1.15;;
11425;SDS011;5769;47.998;7.788;2023-04-03T00:40:48;0.95;;;0.95;;
11425;SDS011;5769;47.998;7.788;2023-04-03T00:43:16;1.02;;;1.02;;
11425;SDS011;5769;47.998;7.788;2023-04-03T00:45:43;0.95;;;0.95;;
11425;SDS011;5769;47.998;7.788;2023-04-03T00:48:11;0.88;;;0.88;;
11425;SDS011;5769;47.998;7.788;2023-04-03T00:50:40;1.33;;;1.33;;
11425;SDS011;5769;47.998;7.788;2023-04-03T00:53:11;1.45;;;1.45;;
11425;SDS011;5769;47.998;7.788;2023-04-03T00:55:39;1.90;;;1.80;;
11425;SDS011;5769;47.998;7.788;2023-04-03T00:58:06;1.35;;;1.35;;
11425;SDS011;5769;47.998;7.788;2023-04-03T01:00:34;1.42;;;1.42;;
11425;SDS011;5769;47.998;7.788;2023-04-03T01:03:02;1.42;;;1.42;;
11425;SDS011;5769;47.998;7.788;2023-04-03T01:05:29;1.35;;;1.35;;
11425;SDS011;5769;47.998;7.788;2023-04-03T01:07:56;1.23;;;1.23;;
11425;SDS011;5769;47.998;7.788;2023-04-03T01:10:25;1.50;;;1.50;;
11425;SDS011;5769;47.998;7.788;2023-04-03T01:12:52;1.35;;;1.35;;
11425;SDS011;5769;47.998;7.788;2023-04-03T01:15:20;2.33;;;2.22;;
11425;SDS011;5769;47.998;7.788;2023-04-03T01:17:49;1.55;;;1.55;;
11425;SDS011;5769;47.998;7.788;2023-04-03T01:20:39;1.30;;;1.30;;
11425;SDS011;5769;47.998;7.788;2023-04-03T01:23:12;2.05;;;2.03;;
11425;SDS011;5769;47.998;7.788;2023-04-03T01:25:44;1.60;;;1.60;;
11425;SDS011;5769;47.998;7.788;2023-04-03T01:28:13;1.67;;;1.67;;
11425;SDS011;5769;47.998;7.788;2023-04-03T01:30:41;1.63;;;1.63;;
11425;SDS011;5769;47.998;7.788;2023-04-03T01:33:11;1.17;;;1.17;;
11425;SDS011;5769;47.998;7.788;2023-04-03T01:35:38;2.22;;;2.13;;
11425;SDS011;5769;47.998;7.788;2023-04-03T01:38:05;1.63;;;1.63;;
11425;SDS011;5769;47.998;7.788;2023-04-03T01:40:32;1.58;;;1.58;;
11425;SDS011;5769;47.998;7.788;2023-04-03T01:42:59;2.15;;;2.05;;
11425;SDS011;5769;47.998;7.788;2023-04-03T01:45:26;2.22;;;2.15;;
11425;SDS011;5769;47.998;7.788;2023-04-03T01:47:56;2.22;;;2.15;;
11425;SDS011;5769;47.998;7.788;2023-04-03T01:50:24;1.95;;;1.95;;
11425;SDS011;5769;47.998;7.788;2023-04-03T01:52:51;1.60;;;1.60;;
11425;SDS011;5769;47.998;7.788;2023-04-03T01:55:18;2.53;;;2.42;;
11425;SDS011;5769;47.998;7.788;2023-04-03T01:57:45;2.28;;;2.17;;
11425;SDS011;5769;47.998;7.788;2023-04-03T02:00:12;2.03;;;2.03;;
11425;SDS011;5769;47.998;7.788;2023-04-03T02:02:40;2.40;;;2.30;;
11425;SDS011;5769;47.998;7.788;2023-04-03T02:05:07;2.22;;;2.13;;
11425;SDS011;5769;47.998;7.788;2023-04-03T02:07:36;2.35;;;2.25;;
11425;SDS011;5769;47.998;7.788;2023-04-03T02:10:03;2.38;;;2.30;;
11425;SDS011;5769;47.998;7.788;2023-04-03T02:12:30;1.83;;;1.83;;
11425;SDS011;5769;47.998;7.788;2023-04-03T02:14:57;2.05;;;2.05;;
11425;SDS011;5769;47.998;7.788;2023-04-03T02:17:25;2.13;;;2.13;;
11425;SDS011;5769;47.998;7.788;2023-04-03T02:19:52;2.00;;;2.00;;
11425;SDS011;5769;47.998;7.788;2023-04-03T02:22:19;2.53;;;2.42;;
11425;SDS011;5769;47.998;7.788;2023-04-03T02:24:48;2.22;;;2.13;;
11425;SDS011;5769;47.998;7.788;2023-04-03T02:27:16;2.60;;;2.50;;
11425;SDS011;5769;47.998;7.788;2023-04-03T02:29:43;2.75;;;2.65;;
11425;SDS011;5769;47.998;7.788;2023-04-03T02:32:13;2.53;;;2.42;;
11425;SDS011;5769;47.998;7.788;2023-04-03T02:34:40;2.58;;;2.47;;
11425;SDS011;5769;47.998;7.788;2023-04-03T02:37:07;2.35;;;2.28;;
11425;SDS011;5769;47.998;7.788;2023-04-03T02:39:34;2.67;;;2.58;;
11425;SDS011;5769;47.998;7.788;2023-04-03T02:42:03;2.35;;;2.28;;
11425;SDS011;5769;47.998;7.788;2023-04-03T02:44:30;2.50;;;2.40;;
11425;SDS011;5769;47.998;7.788;2023-04-03T02:46:57;2.53;;;2.42;;
11425;SDS011;5769;47.998;7.788;2023-04-03T02:49:24;2.45;;;2.35;;
11425;SDS011;5769;47.998;7.788;2023-04-03T02:51:51;2.30;;;2.22;;
11425;SDS011;5769;47.998;7.788;2023-04-03T02:54:18;1.85;;;1.85;;
11425;SDS011;5769;47.998;7.788;2023-04-03T02:56:45;2.28;;;2.17;;
11425;SDS011;5769;47.998;7.788;2023-04-03T02:59:14;2.40;;;2.30;;
11425;SDS011;5769;47.998;7.788;2023-04-03T03:01:41;2.30;;;2.20;;
11425;SDS011;5769;47.998;7.788;2023-04-03T03:04:08;2.40;;;2.30;;
11425;SDS011;5769;47.998;7.788;2023-04-03T03:06:35;2.38;;;2.28;;
11425;SDS011;5769;47.998;7.788;2023-04-03T03:09:02;2.08;;;2.03;;
11425;SDS011;5769;47.998;7.788;2023-04-03T03:11:30;2.38;;;2.28;;
11425;SDS011;5769;47.998;7.788;2023-04-03T03:13:57;2.38;;;2.28;;
11425;SDS011;5769;47.998;7.788;2023-04-03T03:16:26;2.22;;;2.15;;
11425;SDS011;5769;47.998;7.788;2023-04-03T03:18:53;2.20;;;2.10;;
11425;SDS011;5769;47.998;7.788;2023-04-03T03:21:20;2.45;;;2.35;;
11425;SDS011;5769;47.998;7.788;2023-04-03T03:23:47;1.58;;;1.58;;
11425;SDS011;5769;47.998;7.788;2023-04-03T03:26:14;1.98;;;1.95;;
11425;SDS011;5769;47.998;7.788;2023-04-03T03:28:41;1.92;;;1.83;;
11425;SDS011;5769;47.998;7.788;2023-04-03T03:31:08;1.60;;;1.60;;
11425;SDS011;5769;47.998;7.788;2023-04-03T03:33:37;1.63;;;1.63;;
11425;SDS011;5769;47.998;7.788;2023-04-03T03:36:04;1.90;;;1.90;;
11425;SDS011;5769;47.998;7.788;2023-04-03T03:38:31;2.05;;;1.92;;
11425;SDS011;5769;47.998;7.788;2023-04-03T03:40:58;2.40;;;2.30;;
11425;SDS011;5769;47.998;7.788;2023-04-03T03:43:26;2.13;;;2.10;;
11425;SDS011;5769;47.998;7.788;2023-04-03T03:45:53;2.58;;;2.47;;
11425;SDS011;5769;47.998;7.788;2023-04-03T03:48:20;2.55;;;2.45;;
11425;SDS011;5769;47.998;7.788;2023-04-03T03:50:49;2.42;;;2.33;;
11425;SDS011;5769;47.998;7.788;2023-04-03T03:53:16;2.30;;;2.20;;
11425;SDS011;5769;47.998;7.788;2023-04-03T03:55:44;2.25;;;2.17;;
11425;SDS011;5769;47.998;7.788;2023-04-03T03:58:11;2.08;;;2.08;;
11425;SDS011;5769;47.998;7.788;2023-04-03T04:00:38;2.00;;;1.95;;
11425;SDS011;5769;47.998;7.788;2023-04-03T04:03:05;1.88;;;1.88;;
11425;SDS011;5769;47.998;7.788;2023-04-03T04:05:32;1.92;;;1.92;;
11425;SDS011;5769;47.998;7.788;2023-04-03T04:08:00;2.00;;;2.00;;
11425;SDS011;5769;47.998;7.788;2023-04-03T04:10:27;2.47;;;2.38;;
11425;SDS011;5769;47.998;7.788;2023-04-03T04:12:54;2.22;;;2.15;;
11425;SDS011;5769;47.998;7.788;2023-04-03T04:15:21;2.53;;;2.42;;
11425;SDS011;5769;47.998;7.788;2023-04-03T04:17:50;2.47;;;2.38;;
11425;SDS011;5769;47.998;7.788;2023-04-03T04:20:18;2.55;;;2.45;;
11425;SDS011;5769;47.998;7.788;2023-04-03T04:22:45;2.25;;;2.17;;
11425;SDS011;5769;47.998;7.788;2023-04-03T04:25:13;2.85;;;2.75;;
11425;SDS011;5769;47.998;7.788;2023-04-03T04:27:40;2.50;;;2.40;;
11425;SDS011;5769;47.998;7.788;2023-04-03T04:30:08;2.63;;;2.53;;
11425;SDS011;5769;47.998;7.788;2023-04-03T04:32:35;2.50;;;2.40;;
11425;SDS011;5769;47.998;7.788;2023-04-03T04:35:02;2.88;;;2.78;;
11425;SDS011;5769;47.998;7.788;2023-04-03T04:37:31;2.78;;;2.67;;
11425;SDS011;5769;47.998;7.788;2023-04-03T04:39:58;3.03;;;2.92;;
11425;SDS011;5769;47.998;7.788;2023-04-03T04:42:27;2.92;;;2.83;;
11425;SDS011;5769;47.998;7.788;2023-04-03T04:44:54;2.90;;;2.80;;
11425;SDS011;5769;47.998;7.788;2023-04-03T04:47:21;2.45;;;2.35;;
11425;SDS011;5769;47.998;7.788;2023-04-03T04:49:48;2.75;;;2.65;;
11425;SDS011;5769;47.998;7.788;2023-04-03T04:52:15;2.80;;;2.70;;
11425;SDS011;5769;47.998;7.788;2023-04-03T04:54:42;3.00;;;2.90;;
11425;SDS011;5769;47.998;7.788;2023-04-03T04:57:09;2.95;;;2.85;;
11425;SDS011;5769;47.998;7.788;2023-04-03T04:59:37;2.58;;;2.47;;
11425;SDS011;5769;47.998;7.788;2023-04-03T05:02:04;2.83;;;2.72;;
11425;SDS011;5769;47.998;7.788;2023-04-03T05:04:31;2.65;;;2.55;;
11425;SDS011;5769;47.998;7.788;2023-04-03T05:06:59;2.88;;;2.78;;
11425;SDS011;5769;47.998;7.788;2023-04-03T05:09:26;3.03;;;2.92;;
11425;SDS011;5769;47.998;7.788;2023-04-03T05:11:53;3.03;;;2.92;;
11425;SDS011;5769;47.998;7.788;2023-04-03T05:14:21;2.83;;;2.72;;
11425;SDS011;5769;47.998;7.788;2023-04-03T05:16:49;2.78;;;2.67;;
11425;SDS011;5769;47.998;7.788;2023-04-03T05:19:18;2.95;;;2.85;;
11425;SDS011;5769;47.998;7.788;2023-04-03T05:21:45;3.08;;;2.97;;
11425;SDS011;5769;47.998;7.788;2023-04-03T05:24:13;3.47;;;3.38;;
11425;SDS011;5769;47.998;7.788;2023-04-03T05:26:40;3.25;;;3.15;;
11425;SDS011;5769;47.998;7.788;2023-04-03T05:29:07;3.55;;;3.45;;
11425;SDS011;5769;47.998;7.788;2023-04-03T05:31:34;3.28;;;3.17;;
11425;SDS011;5769;47.998;7.788;2023-04-03T05:34:04;3.45;;;3.35;;
11425;SDS011;5769;47.998;7.788;2023-04-03T05:36:31;3.60;;;3.50;;
11425;SDS011;5769;47.998;7.788;2023-04-03T05:38:58;3.42;;;3.33;;
11425;SDS011;5769;47.998;7.788;2023-04-03T05:41:25;3.75;;;3.65;;
11425;SDS011;5769;47.998;7.788;2023-04-03T05:43:52;4.18;;;4.07;;
11425;SDS011;5769;47.998;7.788;2023-04-03T05:46:19;3.75;;;3.65;;
11425;SDS011;5769;47.998;7.788;2023-04-03T05:48:47;4.35;;;4.25;;
11425;SDS011;5769;47.998;7.788;2023-04-03T05:51:16;3.42;;;3.33;;
11425;SDS011;5769;47.998;7.788;2023-04-03T05:53:43;3.65;;;3.55;;
11425;SDS011;5769;47.998;7.788;2023-04-03T05:56:11;3.35;;;3.25;;
11425;SDS011;5769;47.998;7.788;2023-04-03T05:58:38;3.25;;;3.15;;
11425;SDS011;5769;47.998;7.788;2023-04-03T06:01:05;3.53;;;3.42;;
11425;SDS011;5769;47.998;7.788;2023-04-03T06:03:32;0.55;;;0.55;;
11425;SDS011;5769;47.998;7.788;2023-04-03T06:06:01;0.28;;;0.28;;
11425;SDS011;5769;47.998;7.788;2023-04-03T06:08:30;0.50;;;0.50;;
11425;SDS011;5769;47.998;7.788;2023-04-03T06:10:57;0.40;;;0.40;;
11425;SDS011;5769;47.998;7.788;2023-04-03T06:13:24;0.28;;;0.28;;
11425;SDS011;5769;47.998;7.788;2023-04-03T06:15:52;0.40;;;0.40;;
11425;SDS011;5769;47.998;7.788;2023-04-03T06:18:19;0.40;;;0.40;;
11425;SDS011;5769;47.998;7.788;2023-04-03T06:20:46;0.40;;;0.40;;
11425;SDS011;5769;47.998;7.788;2023-04-03T06:23:13;0.22;;;0.22;;
11425;SDS011;5769;47.998;7.788;2023-04-03T06:25:41;0.30;;;0.30;;
11425;SDS011;5769;47.998;7.788;2023-04-03T06:28:08;0.35;;;0.28;;
11425;SDS011;5769;47.998;7.788;2023-04-03T06:30:35;0.40;;;0.40;;
11425;SDS011;5769;47.998;7.788;2023-04-03T06:33:02;0.28;;;0.22;;
11425;SDS011;5769;47.998;7.788;2023-04-03T06:35:29;0.20;;;0.20;;
11425;SDS011;5769;47.998;7.788;2023-04-03T06:37:56;0.13;;;0.13;;
11425;SDS011;5769;47.998;7.788;2023-04-03T06:40:24;0.22;;;0.22;;
11425;SDS011;5769;47.998;7.788;2023-04-03T06:42:53;0.13;;;0.13;;
11425;SDS011;5769;47.998;7.788;2023-04-03T06:45:20;0.47;;;0.47;;
11425;SDS011;5769;47.998;7.788;2023-04-03T06:47:47;0.10;;;0.10;;
11425;SDS011;5769;47.998;7.788;2023-04-03T06:50:14;0.20;;;0.20;;
11425;SDS011;5769;47.998;7.788;2023-04-03T06:52:41;0.30;;;0.30;;
11425;SDS011;5769;47.998;7.788;2023-04-03T06:55:09;0.30;;;0.30;;
11425;SDS011;5769;47.998;7.788;2023-04-03T06:57:36;0.25;;;0.25;;
11425;SDS011;5769;47.998;7.788;2023-04-03T07:00:05;0.20;;;0.20;;
11425;SDS011;5769;47.998;7.788;2023-04-03T07:02:34;0.08;;;0.08;;
11425;SDS011;5769;47.998;7.788;2023-04-03T07:05:01;0.00;;;0.00;;
11425;SDS011;5769;47.998;7.788;2023-04-03T07:07:28;0.20;;;0.20;;
11425;SDS011;5769;47.998;7.788;2023-04-03T07:09:55;0.20;;;0.20;;
11425;SDS011;5769;47.998;7.788;2023-04-03T07:12:22;0.17;;;0.17;;
11425;SDS011;5769;47.998;7.788;2023-04-03T07:14:49;0.40;;;0.40;;
11425;SDS011;5769;47.998;7.788;2023-04-03T07:17:18;0.47;;;0.43;;
11425;SDS011;5769;47.998;7.788;2023-04-03T07:19:45;0.20;;;0.20;;
11425;SDS011;5769;47.998;7.788;2023-04-03T07:22:12;0.10;;;0.10;;
11425;SDS011;5769;47.998;7.788;2023-04-03T07:24:39;0.20;;;0.20;;
11425;SDS011;5769;47.998;7.788;2023-04-03T07:27:06;0.30;;;0.30;;
11425;SDS011;5769;47.998;7.788;2023-04-03T07:29:33;0.20;;;0.10;;
11425;SDS011;5769;47.998;7.788;2023-04-03T07:32:00;0.10;;;0.10;;
11425;SDS011;5769;47.998;7.788;2023-04-03T07:34:29;0.20;;;0.20;;
11425;SDS011;5769;47.998;7.788;2023-04-03T07:36:56;0.20;;;0.20;;
11425;SDS011;5769;47.998;7.788;2023-04-03T07:39:23;0.30;;;0.30;;
11425;SDS011;5769;47.998;7.788;2023-04-03T07:41:50;0.22;;;0.22;;
11425;SDS011;5769;47.998;7.788;2023-04-03T07:44:17;0.20;;;0.20;;
11425;SDS011;5769;47.998;7.788;2023-04-03T07:46:44;0.30;;;0.30;;
11425;SDS011;5769;47.998;7.788;2023-04-03T07:49:12;0.10;;;0.10;;
11425;SDS011;5769;47.998;7.788;2023-04-03T07:51:40;0.10;;;0.10;;
11425;SDS011;5769;47.998;7.788;2023-04-03T07:54:07;0.10;;;0.10;;
11425;SDS011;5769;47.998;7.788;2023-04-03T07:56:36;0.10;;;0.10;;
11425;SDS011;5769;47.998;7.788;2023-04-03T07:59:03;0.20;;;0.20;;
11425;SDS011;5769;47.998;7.788;2023-04-03T08:01:31;0.20;;;0.20;;
11425;SDS011;5769;47.998;7.788;2023-04-03T08:03:59;0.28;;;0.28;;
11425;SDS011;5769;47.998;7.788;2023-04-03T08:06:27;0.20;;;0.20;;
11425;SDS011;5769;47.998;7.788;2023-04-03T08:08:56;0.20;;;0.20;;
11425;SDS011;5769;47.998;7.788;2023-04-03T08:11:23;0.35;;;0.32;;
11425;SDS011;5769;47.998;7.788;2023-04-03T08:13:51;0.20;;;0.20;;
11425;SDS011;5769;47.998;7.788;2023-04-03T08:16:20;0.10;;;0.10;;
11425;SDS011;5769;47.998;7.788;2023-04-03T08:18:47;0.10;;;0.10;;
11425;SDS011;5769;47.998;7.788;2023-04-03T08:21:14;0.20;;;0.20;;
11425;SDS011;5769;47.998;7.788;2023-04-03T08:23:43;0.10;;;0.10;;
11425;SDS011;5769;47.998;7.788;2023-04-03T08:26:12;0.20;;;0.20;;
11425;SDS011;5769;47.998;7.788;2023-04-03T08:28:40;0.10;;;0.10;;
11425;SDS011;5769;47.998;7.788;2023-04-03T08:31:08;0.00;;;0.00;;
11425;SDS011;5769;47.998;7.788;2023-04-03T08:33:36;0.10;;;0.10;;
11425;SDS011;5769;47.998;7.788;2023-04-03T08:36:03;0.10;;;0.10;;
11425;SDS011;5769;47.998;7.788;2023-04-03T08:38:31;0.13;;;0.10;;
11425;SDS011;5769;47.998;7.788;2023-04-03T08:41:02;0.20;;;0.20;;
11425;SDS011;5769;47.998;7.788;2023-04-03T08:43:34;0.13;;;0.13;;
11425;SDS011;5769;47.998;7.788;2023-04-03T08:46:02;0.20;;;0.20;;
11425;SDS011;5769;47.998;7.788;2023-04-03T08:48:33;0.10;;;0.10;;
11425;SDS011;5769;47.998;7.788;2023-04-03T08:51:02;0.20;;;0.20;;
11425;SDS011;5769;47.998;7.788;2023-04-03T08:53:32;0.35;;;0.20;;
11425;SDS011;5769;47.998;7.788;2023-04-03T08:56:00;0.20;;;0.20;;
11425;SDS011;5769;47.998;7.788;2023-04-03T08:58:29;0.10;;;0.10;;
11425;SDS011;5769;47.998;7.788;2023-04-03T09:01:00;0.28;;;0.20;;
11425;SDS011;5769;47.998;7.788;2023-04-03T09:03:29;0.10;;;0.10;;
11425;SDS011;5769;47.998;7.788;2023-04-03T09:05:57;0.47;;;0.10;;
11425;SDS011;5769;47.998;7.788;2023-04-03T09:08:26;0.10;;;0.10;;
11425;SDS011;5769;47.998;7.788;2023-04-03T09:10:58;0.30;;;0.30;;
11425;SDS011;5769;47.998;7.788;2023-04-03T09:13:28;0.10;;;0.10;;
11425;SDS011;5769;47.998;7.788;2023-04-03T09:16:12;0.10;;;0.10;;
11425;SDS011;5769;47.998;7.788;2023-04-03T09:18:41;0.20;;;0.20;;
11425;SDS011;5769;47.998;7.788;2023-04-03T09:21:13;0.20;;;0.20;;
11425;SDS011;5769;47.998;7.788;2023-04-03T09:23:41;0.20;;;0.20;;
11425;SDS011;5769;47.998;7.788;2023-04-03T09:26:11;0.15;;;0.15;;
11425;SDS011;5769;47.998;7.788;2023-04-03T09:28:40;0.17;;;0.17;;
11425;SDS011;5769;47.998;7.788;2023-04-03T09:31:13;0.20;;;0.20;;
11425;SDS011;5769;47.998;7.788;2023-04-03T09:33:41;0.10;;;0.10;;
11425;SDS011;5769;47.998;7.788;2023-04-03T09:36:08;0.20;;;0.20;;
11425;SDS011;5769;47.998;7.788;2023-04-03T09:38:36;0.10;;;0.10;;
11425;SDS011;5769;47.998;7.788;2023-04-03T09:41:04;0.20;;;0.20;;
11425;SDS011;5769;47.998;7.788;2023-04-03T09:43:32;0.20;;;0.20;;
11425;SDS011;5769;47.998;7.788;2023-04-03T09:46:18;0.10;;;0.10;;
11425;SDS011;5769;47.998;7.788;2023-04-03T09:48:50;0.05;;;0.05;;
11425;SDS011;5769;47.998;7.788;2023-04-03T09:51:17;0.30;;;0.30;;
11425;SDS011;5769;47.998;7.788;2023-04-03T09:53:44;0.20;;;0.20;;
11425;SDS011;5769;47.998;7.788;2023-04-03T09:56:19;0.28;;;0.28;;
11425;SDS011;5769;47.998;7.788;2023-04-03T09:58:47;0.10;;;0.10;;
11425;SDS011;5769;47.998;7.788;2023-04-03T10:01:25;0.30;;;0.30;;
11425;SDS011;5769;47.998;7.788;2023-04-03T10:04:03;0.17;;;0.17;;
11425;SDS011;5769;47.998;7.788;2023-04-03T10:06:31;0.10;;;0.10;;
11425;SDS011;5769;47.998;7.788;2023-04-03T10:09:02;0.10;;;0.10;;
11425;SDS011;5769;47.998;7.788;2023-04-03T10:11:30;0.13;;;0.10;;
11425;SDS011;5769;47.998;7.788;2023-04-03T10:13:58;0.10;;;0.10;;
11425;SDS011;5769;47.998;7.788;2023-04-03T10:16:28;0.20;;;0.20;;
11425;SDS011;5769;47.998;7.788;2023-04-03T10:19:00;0.30;;;0.30;;
11425;SDS011;5769;47.998;7.788;2023-04-03T10:21:32;0.10;;;0.10;;
11425;SDS011;5769;47.998;7.788;2023-04-03T10:24:05;0.30;;;0.30;;
11425;SDS011;5769;47.998;7.788;2023-04-03T10:26:37;0.20;;;0.20;;
11425;SDS011;5769;47.998;7.788;2023-04-03T10:29:07;0.10;;;0.10;;
11425;SDS011;5769;47.998;7.788;2023-04-03T10:31:41;0.10;;;0.10;;
11425;SDS011;5769;47.998;7.788;2023-04-03T10:34:13;0.10;;;0.10;;
11425;SDS011;5769;47.998;7.788;2023-04-03T10:36:45;0.20;;;0.20;;
11425;SDS011;5769;47.998;7.788;2023-04-03T10:39:17;0.05;;;0.05;;
11425;SDS011;5769;47.998;7.788;2023-04-03T10:41:50;0.08;;;0.08;;
11425;SDS011;5769;47.998;7.788;2023-04-03T10:44:20;0.30;;;0.30;;
11425;SDS011;5769;47.998;7.788;2023-04-03T10:46:55;0.30;;;0.30;;
11425;SDS011;5769;47.998;7.788;2023-04-03T10:49:31;0.17;;;0.17;;
11425;SDS011;5769;47.998;7.788;2023-04-03T10:52:05;0.20;;;0.20;;
11425;SDS011;5769;47.998;7.788;2023-04-03T10:54:34;0.30;;;0.30;;
11425;SDS011;5769;47.998;7.788;2023-04-03T10:57:06;0.43;;;0.30;;
11425;SDS011;5769;47.998;7.788;2023-04-03T10:59:35;1.08;;;0.30;;
11425;SDS011;5769;47.998;7.788;2023-04-03T11:02:06;0.17;;;0.17;;
11425;SDS011;5769;47.998;7.788;2023-04-03T11:04:35;0.30;;;0.30;;
11425;SDS011;5769;47.998;7.788;2023-04-03T11:07:04;0.20;;;0.10;;
11425;SDS011;5769;47.998;7.788;2023-04-03T11:09:37;0.20;;;0.20;;
11425;SDS011;5769;47.998;7.788;2023-04-03T11:12:10;0.10;;;0.10;;
11425;SDS011;5769;47.998;7.788;2023-04-03T11:14:38;0.47;;;0.47;;
11425;SDS011;5769;47.998;7.788;2023-04-03T11:17:11;0.25;;;0.25;;
11425;SDS011;5769;47.998;7.788;2023-04-03T11:19:43;0.10;;;0.10;;
11425;SDS011;5769;47.998;7.788;2023-04-03T11:22:14;0.28;;;0.28;;
11425;SDS011;5769;47.998;7.788;2023-04-03T11:24:43;0.30;;;0.30;;
11425;SDS011;5769;47.998;7.788;2023-04-03T11:27:11;0.20;;;0.20;;
11425;SDS011;5769;47.998;7.788;2023-04-03T11:29:41;0.20;;;0.20;;
11425;SDS011;5769;47.998;7.788;2023-04-03T11:32:17;0.50;;;0.32;;
11425;SDS011;5769;47.998;7.788;2023-04-03T11:34:50;0.30;;;0.30;;
11425;SDS011;5769;47.998;7.788;2023-04-03T11:37:27;0.40;;;0.40;;
11425;SDS011;5769;47.998;7.788;2023-04-03T11:39:56;0.10;;;0.10;;
11425;SDS011;5769;47.998;7.788;2023-04-03T11:42:25;0.30;;;0.30;;
11425;SDS011;5769;47.998;7.788;2023-04-03T11:47:47;0.30;;;0.30;;
11425;SDS011;5769;47.998;7.788;2023-04-03T11:50:30;0.20;;;0.20;;
11425;SDS011;5769;47.998;7.788;2023-04-03T11:52:59;0.22;;;0.22;;
11425;SDS011;5769;47.998;7.788;2023-04-03T11:58:20;0.20;;;0.20;;
11425;SDS011;5769;47.998;7.788;2023-04-03T12:00:49;0.30;;;0.30;;
11425;SDS011;5769;47.998;7.788;2023-04-03T12:03:35;0.20;;;0.20;;
11425;SDS011;5769;47.998;7.788;2023-04-03T12:18:13;0.38;;;0.30;;
11425;SDS011;5769;47.998;7.788;2023-04-03T12:20:59;0.30;;;0.30;;
11425;SDS011;5769;47.998;7.788;2023-04-03T12:23:27;0.25;;;0.20;;
11425;SDS011;5769;47.998;7.788;2023-04-03T12:25:59;0.20;;;0.20;;
11425;SDS011;5769;47.998;7.788;2023-04-03T12:28:29;0.10;;;0.10;;
11425;SDS011;5769;47.998;7.788;2023-04-03T12:31:09;0.10;;;0.10;;
11425;SDS011;5769;47.998;7.788;2023-04-03T12:33:38;0.20;;;0.20;;
11425;SDS011;5769;47.998;7.788;2023-04-03T12:36:15;0.10;;;0.10;;
11425;SDS011;5769;47.998;7.788;2023-04-03T12:38:49;0.10;;;0.10;;
11425;SDS011;5769;47.998;7.788;2023-04-03T12:41:26;0.40;;;0.40;;
11425;SDS011;5769;47.998;7.788;2023-04-03T12:44:00;0.30;;;0.28;;
11425;SDS011;5769;47.998;7.788;2023-04-03T12:46:33;0.20;;;0.20;;
11425;SDS011;5769;47.998;7.788;2023-04-03T12:49:10;0.20;;;0.20;;
11425;SDS011;5769;47.998;7.788;2023-04-03T12:51:43;0.20;;;0.20;;
11425;SDS011;5769;47.998;7.788;2023-04-03T12:54:12;0.30;;;0.30;;
11425;SDS011;5769;47.998;7.788;2023-04-03T12:56:40;0.10;;;0.10;;
11425;SDS011;5769;47.998;7.788;2023-04-03T12:59:14;0.20;;;0.20;;
11425;SDS011;5769;47.998;7.788;2023-04-03T13:01:41;0.35;;;0.25;;
11425;SDS011;5769;47.998;7.788;2023-04-03T13:04:10;0.20;;;0.20;;
11425;SDS011;5769;47.998;7.788;2023-04-03T13:06:38;0.30;;;0.30;;
11425;SDS011;5769;47.998;7.788;2023-04-03T13:09:14;0.30;;;0.30;;
11425;SDS011;5769;47.998;7.788;2023-04-03T13:11:46;0.20;;;0.20;;
11425;SDS011;5769;47.998;7.788;2023-04-03T13:14:14;0.20;;;0.20;;
11425;SDS011;5769;47.998;7.788;2023-04-03T13:16:42;0.40;;;0.40;;
11425;SDS011;5769;47.998;7.788;2023-04-03T13:19:14;0.20;;;0.10;;
11425;SDS011;5769;47.998;7.788;2023-04-03T13:21:42;0.20;;;0.20;;
11425;SDS011;5769;47.998;7.788;2023-04-03T13:24:11;0.20;;;0.20;;
11425;SDS011;5769;47.998;7.788;2023-04-03T13:26:39;0.10;;;0.10;;
11425;SDS011;5769;47.998;7.788;2023-04-03T13:29:07;0.20;;;0.20;;
11425;SDS011;5769;47.998;7.788;2023-04-03T13:31:35;0.30;;;0.30;;
11425;SDS011;5769;47.998;7.788;2023-04-03T13:34:03;0.93;;;0.30;;
11425;SDS011;5769;47.998;7.788;2023-04-03T13:36:33;0.30;;;0.30;;
11425;SDS011;5769;47.998;7.788;2023-04-03T13:39:02;0.28;;;0.28;;
11425;SDS011;5769;47.998;7.788;2023-04-03T13:41:32;0.30;;;0.30;;
11425;SDS011;5769;47.998;7.788;2023-04-03T13:44:14;0.20;;;0.20;;
11425;SDS011;5769;47.998;7.788;2023-04-03T13:46:41;0.20;;;0.20;;
11425;SDS011;5769;47.998;7.788;2023-04-03T13:49:17;0.28;;;0.28;;
11425;SDS011;5769;47.998;7.788;2023-04-03T13:51:44;0.30;;;0.25;;
11425;SDS011;5769;47.998;7.788;2023-04-03T13:54:15;0.30;;;0.30;;
11425;SDS011;5769;47.998;7.788;2023-04-03T13:56:52;0.30;;;0.30;;
11425;SDS011;5769;47.998;7.788;2023-04-03T13:59:21;0.30;;;0.30;;
11425;SDS011;5769;47.998;7.788;2023-04-03T14:01:49;0.20;;;0.20;;
11425;SDS011;5769;47.998;7.788;2023-04-03T14:04:19;0.38;;;0.38;;
11425;SDS011;5769;47.998;7.788;2023-04-03T14:06:47;0.32;;;0.32;;
11425;SDS011;5769;47.998;7.788;2023-04-03T14:09:15;0.25;;;0.25;;
11425;SDS011;5769;47.998;7.788;2023-04-03T14:11:42;0.40;;;0.40;;
11425;SDS011;5769;47.998;7.788;2023-04-03T14:14:13;0.20;;;0.20;;
11425;SDS011;5769;47.998;7.788;2023-04-03T14:16:41;0.30;;;0.30;;
11425;SDS011;5769;47.998;7.788;2023-04-03T14:19:21;0.30;;;0.30;;
11425;SDS011;5769;47.998;7.788;2023-04-03T14:21:49;0.20;;;0.20;;
11425;SDS011;5769;47.998;7.788;2023-04-03T14:24:17;0.20;;;0.20;;
11425;SDS011;5769;47.998;7.788;2023-04-03T14:26:44;0.20;;;0.20;;
11425;SDS011;5769;47.998;7.788;2023-04-03T14:29:13;0.30;;;0.30;;
11425;SDS011;5769;47.998;7.788;2023-04-03T14:31:40;0.30;;;0.30;;
11425;SDS011;5769;47.998;7.788;2023-04-03T14:34:09;0.20;;;0.20;;
11425;SDS011;5769;47.998;7.788;2023-04-03T14:36:36;0.50;;;0.32;;
11425;SDS011;5769;47.998;7.788;2023-04-03T14:39:04;0.30;;;0.30;;
11425;SDS011;5769;47.998;7.788;2023-04-03T14:41:32;0.28;;;0.28;;
11425;SDS011;5769;47.998;7.788;2023-04-03T14:43:59;0.20;;;0.20;;
11425;SDS011;5769;47.998;7.788;2023-04-03T14:46:28;0.30;;;0.30;;
11425;SDS011;5769;47.998;7.788;2023-04-03T14:48:56;0.30;;;0.30;;
11425;SDS011;5769;47.998;7.788;2023-04-03T14:51:23;0.20;;;0.20;;
11425;SDS011;5769;47.998;7.788;2023-04-03T14:53:51;0.40;;;0.40;;
11425;SDS011;5769;47.998;7.788;2023-04-03T14:56:18;0.30;;;0.30;;
11425;SDS011;5769;47.998;7.788;2023-04-03T14:58:47;0.40;;;0.40;;
11425;SDS011;5769;47.998;7.788;2023-04-03T15:01:15;0.30;;;0.30;;
11425;SDS011;5769;47.998;7.788;2023-04-03T15:03:44;0.32;;;0.32;;
11425;SDS011;5769;47.998;7.788;2023-04-03T15:06:11;0.30;;;0.30;;
11425;SDS011;5769;47.998;7.788;2023-04-03T15:08:39;0.40;;;0.40;;
11425;SDS011;5769;47.998;7.788;2023-04-03T15:11:07;0.30;;;0.30;;
11425;SDS011;5769;47.998;7.788;2023-04-03T15:13:34;0.50;;;0.50;;
11425;SDS011;5769;47.998;7.788;2023-04-03T15:16:02;0.47;;;0.47;;
11425;SDS011;5769;47.998;7.788;2023-04-03T15:18:30;0.50;;;0.50;;
11425;SDS011;5769;47.998;7.788;2023-04-03T15:21:00;0.50;;;0.50;;
11425;SDS011;5769;47.998;7.788;2023-04-03T15:23:27;0.40;;;0.40;;
11425;SDS011;5769;47.998;7.788;2023-04-03T15:25:55;0.30;;;0.30;;
11425;SDS011;5769;47.998;7.788;2023-04-03T15:28:23;0.40;;;0.40;;